13分钟前
罗盘
风向 的 风向 的 风向 到 风向 310° De Kooy Airfield 3/21
风: 11 千吨, 4 beaufort
0 500 1.500 3.000 5.000 8.000 10.000
FEW 1.300 ft
SCT 1.700 ft
BKN 3.200 ft
METAR EHKD 301141Z AUTO 31011KT 270V340 9999 DZ FEW013 SCT017 BKN032 09/07 Q1005 WHT TEMPO 4500 -SHRA -RA SCT015 BKN020 OVC030

METAR定义 | 嵌入

24小时趋势

航班类别VFRLIFR
温度10 °C5 °C
风速23 千吨0 千吨
能见度10 公里+0 米

更多历史数据

下载我们的安卓应用程序

从你的主屏幕上轻松地访问你的航空天气。
只需一次付费,您就可以获得无广告的体验。

您会帮助我们保持Metar-Taf.com正常运行吗?
您的贡献有助于网站的进一步开发并支付费用。

没有更多广告

您是捐款5美元还是更多?然后,我们将永远不会再向您展示广告,这是我们永恒的感谢!
捐赠前先登录

METAR De Kooy Airfield

De Kooy Airfield是Den Helder,荷兰中的中型机场。 机场有{a,plural,=1{一条跑道} other{#跑道}}: 3/21

该报告是针对2021年11月30日 12:41, 当地时间上的De Kooy Airfield所做的。

机场观察

风来自北西 (310°)方向,速度为11 千吨。 风向在西 (270°)和北北西 (340°)之间变化。

可见度为10 公里 或者更多。

有几云在1.300 ft的高度, 疏云,零星散落的云朵在1.700 ft的高度 和 碎云在3.200 ft的高度。 破损或更高的上限为3.200 ft。

当前天气为细雨。 温度为9 °C,阵风为4 °C。 露点为7 °C,相对湿度为87%。 海平面上的气压为1005 压力 (QNH)。

发展趋势

  • 暂时的

    可变方向的风很小或没有。 可见性变为4,5 公里。 重大天气:光 阵雨 雨, 光 雨。 疏云,零星散落的云朵在1.500 ft的高度, 碎云在2.000 ft的高度 和 乌云密布在3.000 ft的高度.

白天

今天,太阳从08:29升起,在16:29降落。 这适用于De Kooy Airfield,世界夏令时可能有所不同。 当地时间与世界标准时间之间的时差为+1 小时。 当前,没有夏令时有效。

公司介绍

在这个机场,你可以找到飞行学校。 本场上唯一已知的公司是AeroClub Maritime Vliegopleidingen。

体会

到Vliegles.nl去找飞行课程,跳伞和其他飞行体验。 浏览页面,了解De Kooy Airfield附近所有可用的活动。 你也可以使用搜索功能来寻找你所在地附近的特定飞行课程、跳伞或其他飞行体验。

您是否要在网站上De Kooy Airfield飞行的天气? 阅读更多   自由!